Flight Track Log - Related Links

Times and Time Zones

All times are in EDT time to prevent confusion due to time zone crossing. See the FLG3396 flight status page for this flight to view local times or setup timezone preferences in your user account.

Time Position Orientation Groundspeed Altitude Reporting Facility
EDT Latitude Longitude Course Direction KTS MPH feet Rate Location/Type
Tue 08:57:15 PM 44.8878 -93.2956 200° South 183 211 3,100  Level Minneapolis Center
Tue 08:58:17 PM 44.8722 -93.3781 255° West 217 250 4,700 2,226 Climbing Minneapolis Center
Tue 08:59:19 PM 44.8403 -93.4928 249° West 277 319 7,700 2,544 Climbing Minneapolis Center
Tue 09:00:22 PM 44.7650 -93.5308 200° South 290 334 10,000 1,824 Climbing Minneapolis Center
Tue 09:01:24 PM 44.6836 -93.5703 199° South 313 360 11,500 1,694 Climbing Minneapolis Center
Tue 09:02:00 PM 44.1680 -93.3460 200° South  Level Estimated
Tue 09:02:26 PM 44.5908 -93.6158 199° South 352 405 13,500  Level Minneapolis Center
Tue 09:03:28 PM 44.4958 -93.6617 199° South 361 415 15,600 2,032 Climbing Minneapolis Center
Tue 09:04:30 PM 44.3775 -93.7189 199° South 375 432 17,700 1,887 Climbing Minneapolis Center
Tue 09:05:32 PM 44.2756 -93.7667 199° South 383 441 19,500 1,597 Climbing Minneapolis Center
Tue 09:06:34 PM 44.1733 -93.8225 201° Southwest 389 448 21,000 1,500 Climbing Minneapolis Center
Tue 09:07:36 PM 44.0778 -93.9011 211° Southwest 395 455 22,600 1,452 Climbing Minneapolis Center
Tue 09:08:38 PM 43.9797 -93.9783 210° Southwest 401 461 24,000 1,258 Climbing Minneapolis Center
Tue 09:09:40 PM 43.8500 -94.0539 203° Southwest 433 498 25,200 1,065 Climbing Minneapolis Center
Tue 09:10:42 PM 43.7289 -94.0836 190° South 440 506 26,200 968 Climbing Minneapolis Center
Tue 09:11:44 PM 43.6056 -94.1153 191° South 446 513 27,200 960 Climbing Minneapolis Center
Tue 09:12:47 PM 43.4847 -94.1469 191° South 457 526 28,200 1,152 Climbing Minneapolis Center
Tue 09:13:49 PM 43.3319 -94.1850 190° South 466 536 29,600 1,065 Climbing Minneapolis Center
Tue 09:14:51 PM 43.2047 -94.2158 190° South 470 541 30,400 871 Climbing Minneapolis Center
Tue 09:15:53 PM 43.0719 -94.2486 190° South 469 540 31,400 919 Climbing Minneapolis Center
Tue 09:16:55 PM 42.9492 -94.2806 191° South 471 542 32,300 968 Climbing Minneapolis Center
Tue 09:17:57 PM 42.8211 -94.3100 190° South 471 542 33,400 823 Climbing Minneapolis Center
Tue 09:18:59 PM 42.6700 -94.3494 191° South 469 540 34,000 290 Climbing Minneapolis Center
Tue 09:20:01 PM 42.5389 -94.3806 190° South 478 550 34,000  Level Minneapolis Center
Tue 09:21:03 PM 42.3950 -94.4158 190° South 483 556 34,000  Level Minneapolis Center
Tue 09:22:05 PM 42.2589 -94.4500 191° South 488 562 34,000  Level Minneapolis Center
Tue 09:23:07 PM 42.1206 -94.4833 190° South 496 571 34,000  Level Minneapolis Center
Tue 09:24:09 PM 41.9797 -94.5144 189° South 504 580 34,000  Level Minneapolis Center
Tue 09:25:12 PM 41.8403 -94.5481 190° South 507 583 34,000  Level Minneapolis Center
Tue 09:26:14 PM 41.7008 -94.5814 190° South 507 583 34,000  Level Minneapolis Center
Tue 09:27:16 PM 41.5336 -94.6208 190° South 506 582 34,000  Level Minneapolis Center
Tue 09:28:18 PM 41.3950 -94.6522 190° South 506 582 34,000  Level Minneapolis Center
Tue 09:29:20 PM 41.2567 -94.6847 190° South 505 581 34,000  Level Minneapolis Center
Tue 09:30:22 PM 41.1183 -94.7178 190° South 505 581 34,000  Level Minneapolis Center
Tue 09:31:24 PM 40.9792 -94.7500 190° South 505 581 34,000  Level Minneapolis Center
Tue 09:32:26 PM 40.8403 -94.7828 190° South 505 581 34,000  Level Minneapolis Center
Tue 09:33:27 PM 40.7011 -94.8150 190° South 505 581 34,000  Level Minneapolis Center
Tue 09:34:29 PM 40.5617 -94.8472 190° South 505 581 34,000  Level Minneapolis Center
Tue 09:35:31 PM 40.3953 -94.8861 190° South 505 581 34,000  Level Minneapolis Center
Tue 09:36:33 PM 40.2561 -94.9175 190° South 505 581 34,000 290 Level Minneapolis Center
Tue 09:37:35 PM 40.1181 -94.9478 190° South 505 581 34,600 774 Climbing Minneapolis Center
Tue 09:38:37 PM 39.9800 -94.9800 190° South 505 581 35,600 677 Climbing Minneapolis Center
Tue 09:39:39 PM 39.8467 -95.0111 190° South 493 567 36,000 195 Climbing Minneapolis Center
Tue 09:40:40 PM 39.7008 -95.0417 189° South 492 566 36,000  Level Minneapolis Center
Tue 09:41:42 PM 39.5647 -95.0728 190° South 496 571 36,000  Level Minneapolis Center
Tue 09:42:44 PM 39.4261 -95.1033 190° South 505 581 36,000  Level Minneapolis Center
Tue 09:43:45 PM 39.2881 -95.1356 190° South 507 583 36,000  Level Minneapolis Center
Tue 09:45:14 PM 39.0581 -95.1850 189° South 505 581 36,000  Level Kansas City Center
Tue 09:46:16 PM 38.9436 -95.2100 190° South 502 578 36,000  Level Kansas City Center
Tue 09:47:18 PM 38.7803 -95.2469 190° South 500 575 36,000  Level Kansas City Center
Tue 09:48:19 PM 38.6436 -95.2750 189° South 499 574 36,000  Level Kansas City Center
Tue 09:49:22 PM 38.5092 -95.3050 190° South 494 568 36,000  Level Kansas City Center
Tue 09:50:23 PM 38.3739 -95.3353 190° South 494 568 36,000  Level Kansas City Center
Tue 09:51:23 PM 38.2392 -95.3639 189° South 494 568 36,000  Level Kansas City Center
Tue 09:52:25 PM 38.1044 -95.3911 189° South 494 568 36,000  Level Kansas City Center
Tue 09:53:29 PM 37.9703 -95.4206 190° South 493 567 36,000  Level Kansas City Center
Tue 09:54:29 PM 37.8111 -95.4564 190° South 485 558 36,000  Level Kansas City Center
Tue 09:55:30 PM 37.6769 -95.4850 190° South 485 558 36,000  Level Kansas City Center
Tue 09:56:32 PM 37.5428 -95.5119 189° South 485 558 36,000  Level Kansas City Center
Tue 09:57:37 PM 37.4086 -95.5411 190° South 487 560 36,000  Level Kansas City Center
Tue 09:58:37 PM 37.2753 -95.5658 188° South 487 560 36,000  Level Kansas City Center
Tue 09:59:38 PM 37.1414 -95.5933 189° South 487 560 36,000  Level Kansas City Center
Tue 10:00:41 PM 37.0075 -95.6214 189° South 487 560 36,000  Level Kansas City Center
Tue 10:01:42 PM 36.8478 -95.6553 190° South 487 560 36,000  Level Kansas City Center
Tue 10:02:46 PM 36.7158 -95.6842 190° South 486 559 36,000  Level Kansas City Center
Tue 10:03:46 PM 36.5953 -95.7081 189° South 486 559 36,000  Level Kansas City Center
Tue 10:04:48 PM 36.4353 -95.7422 190° South 486 559 36,000  Level Kansas City Center
Tue 10:05:49 PM 36.3203 -95.7656 189° South 486 559 36,000  Level Kansas City Center
Tue 10:06:53 PM 36.1625 -95.8003 190° South 486 559 36,000  Level Kansas City Center
Tue 10:07:53 PM 36.0361 -95.8442 196° South 479 551 36,000  Level Kansas City Center
Tue 10:08:54 PM 35.9086 -95.8881 196° South 477 549 36,000  Level Kansas City Center
Tue 10:09:58 PM 35.7822 -95.9314 196° South 476 548 36,000  Level Kansas City Center
Tue 10:10:57 PM 35.6561 -95.9764 196° South 475 547 36,000  Level Kansas City Center
Tue 10:11:49 PM 35.5328 -96.0194 196° South 472 543 36,000  Level Fort Worth Center
Tue 10:12:51 PM 35.4061 -96.0631 196° South 472 543 36,000  Level Fort Worth Center
Tue 10:13:52 PM 35.2783 -96.1083 196° South 473 544 36,000  Level Fort Worth Center
Tue 10:14:54 PM 35.1506 -96.1503 195° South 473 544 36,000  Level Fort Worth Center
Tue 10:15:55 PM 35.0222 -96.1936 195° South 474 545 36,000  Level Fort Worth Center
Tue 10:16:57 PM 34.8919 -96.2408 197° South 481 554 36,000  Level Fort Worth Center
Tue 10:17:58 PM 34.7647 -96.2825 195° South 476 548 36,000  Level Fort Worth Center
Tue 10:18:59 PM 34.6361 -96.3256 195° South 476 548 36,000  Level Fort Worth Center
Tue 10:20:01 PM 34.5067 -96.3681 195° South 477 549 36,000  Level Fort Worth Center
Tue 10:21:02 PM 34.3519 -96.4217 196° South 478 550 36,000  Level Fort Worth Center
Tue 10:22:04 PM 34.2233 -96.4631 195° South 478 550 36,000  Level Fort Worth Center
Tue 10:23:05 PM 34.0939 -96.5067 196° South 479 551 36,000  Level Fort Worth Center
Tue 10:24:06 PM 33.9744 -96.5461 195° South 479 551 36,000  Level Fort Worth Center
Tue 10:25:08 PM 33.8461 -96.5903 196° South 479 551 36,000  Level Fort Worth Center
Tue 10:26:09 PM 33.7167 -96.6317 195° South 479 551 36,000  Level Fort Worth Center
Tue 10:27:10 PM 33.5628 -96.6850 196° South 480 552 36,000  Level Fort Worth Center
Tue 10:28:12 PM 33.4333 -96.7283 196° South 482 555 36,000  Level Fort Worth Center
Tue 10:29:13 PM 33.3036 -96.7700 195° South 482 555 36,000  Level Fort Worth Center
Tue 10:30:15 PM 33.1736 -96.8106 195° South 481 554 36,000 -439 Level Fort Worth Center
Tue 10:31:16 PM 33.0444 -96.8522 195° South 480 552 35,100 -934 Descending Fort Worth Center
Tue 10:32:17 PM 32.9139 -96.8889 193° South 479 551 34,100 -976 Descending Fort Worth Center
Tue 10:33:19 PM 32.7808 -96.8717 174° South 476 548 33,100 -537 Descending Fort Worth Center
Tue 10:34:20 PM 32.6525 -96.8358 167° South 474 545 33,000 -49 Descending Fort Worth Center
Tue 10:35:22 PM 32.5275 -96.8000 166° South 464 534 33,000  Level Fort Worth Center
Tue 10:36:23 PM 32.3997 -96.7639 167° South 466 536 33,000  Level Fort Worth Center
Tue 10:37:24 PM 32.2711 -96.7283 167° South 470 541 33,000  Level Fort Worth Center
Tue 10:38:26 PM 32.1153 -96.6839 166° South 478 550 33,000  Level Fort Worth Center
Tue 10:39:27 PM 31.9853 -96.6472 167° South 479 551 33,000  Level Fort Worth Center
Tue 10:40:28 PM 31.8642 -96.6128 166° South 483 556 33,000  Level Fort Worth Center
Tue 10:41:30 PM 31.7336 -96.5758 166° South 483 556 33,000  Level Fort Worth Center
Tue 10:42:31 PM 31.6022 -96.5394 167° South 483 556 33,000  Level Fort Worth Center
Tue 10:43:32 PM 31.4756 -96.4853 160° South 485 558 33,000 -341 Level Fort Worth Center
Tue 10:44:34 PM 31.3542 -96.4119 153° Southeast 485 558 32,300 -1,024 Descending Fort Worth Center
Tue 10:45:35 PM 31.2072 -96.3239 153° Southeast 487 560 30,900 -1,525 Descending Fort Worth Center
Tue 10:46:36 PM 31.0836 -96.2481 152° Southeast 497 572 29,200 -1,756 Descending Fort Worth Center
Tue 10:47:38 PM 30.9600 -96.1739 153° Southeast 501 577 27,300 -2,000 Descending Fort Worth Center
Tue 10:48:39 PM 30.8447 -96.0972 150° Southeast 480 552 25,100 -2,213 Descending Fort Worth Center
Tue 10:49:40 PM 30.7311 -96.0261 152° Southeast 466 536 22,800 -2,400 Descending Fort Worth Center
Tue 10:50:14 PM 30.6631 -95.9842 152° Southeast 461 531 21,300 -1,953 Descending Houston Center
Tue 10:51:06 PM 30.5858 -95.9331 150° Southeast 450 518 20,000 -1,805 Descending Houston Center
Tue 10:52:07 PM 30.4944 -95.8725 150° Southeast 382 440 17,900 -2,459 Descending Houston Center
Tue 10:53:08 PM 30.3997 -95.7800 140° Southeast 375 432 15,000 -2,459 Descending Houston Center
Tue 10:54:09 PM 30.3289 -95.7122 140° Southeast 339 390 12,900 -1,902 Descending Houston Center
Tue 10:55:11 PM 30.2603 -95.6464 140° Southeast 324 373 11,100 -1,113 Descending Houston Center
Tue 10:56:13 PM 30.1956 -95.5836 140° Southeast 309 356 10,600 -984 Descending Houston Center
Tue 10:57:13 PM 30.1289 -95.5206 141° Southeast 308 354 9,100 -1,289 Descending Houston Center
Tue 10:58:14 PM 30.0928 -95.4419 118° Southeast 292 336 8,000 -1,327 Descending Houston Center
Tue 10:58:57 PM 30.0928 -95.3761 90° East 253 291 6,800 -1,574 Descending Houston Center
Tue 10:59:15 PM 30.0917 -95.3561 94° East 272 313 6,400 -1,700 Descending Houston Center
Tue 10:59:57 PM 30.0917 -95.2964 90° East 239 275 5,100 -1,839 Descending Houston Center
Tue 11:00:17 PM 30.0925 -95.2789 87° East 245 282 4,500 -2,060 Descending Houston Center
Tue 11:01:04 PM 30.0758 -95.2139 106° East 221 254 2,800 -1,770 Descending Houston Center
Tue 11:01:18 PM 30.0756 -95.2089 94° East 235 270 2,700 -640 Descending Houston Center
Tue 11:02:19 PM 30.0264 -95.1869 159° South 220 253 2,000 -667 Descending Houston Center
Tue 11:03:06 PM 29.9967 -95.2428 238° Southwest 187 215 1,500 -689 Descending Houston Center
Tue 11:03:20 PM 29.9936 -95.2561 255° West 207 238 1,300 -873 Descending Houston Center
Tue 11:04:01 PM 29.9928 -95.2917 268° West 157 181 700 -787 Descending Houston Center
Tue 11:04:21 PM 29.9928 -95.3042 270° West 173 199 500 -370 Descending Houston Center
Tue 11:05:22 PM 29.9944 -95.3536 272° West 165 190 200 -295 Descending Houston Center

Login

Don't have an account? Register now (free) for customized features, flight alerts, and more!